sensor_id;sensor_type;location;lat;lon;timestamp;P1;durP1;ratioP1;P2;durP2;ratioP2
8088;SDS011;57635;49.194;12.104;2023-06-05T00:01:08;2.50;;;2.40;;
8088;SDS011;57635;49.194;12.104;2023-06-05T00:03:36;2.93;;;2.50;;
8088;SDS011;57635;49.194;12.104;2023-06-05T00:06:07;2.53;;;2.33;;
8088;SDS011;57635;49.194;12.104;2023-06-05T00:08:35;2.47;;;2.37;;
8088;SDS011;57635;49.194;12.104;2023-06-05T00:11:02;2.80;;;2.60;;
8088;SDS011;57635;49.194;12.104;2023-06-05T00:13:30;2.57;;;2.37;;
8088;SDS011;57635;49.194;12.104;2023-06-05T00:15:58;2.33;;;2.23;;
8088;SDS011;57635;49.194;12.104;2023-06-05T00:18:29;2.27;;;2.17;;
8088;SDS011;57635;49.194;12.104;2023-06-05T00:20:57;2.27;;;2.17;;
8088;SDS011;57635;49.194;12.104;2023-06-05T00:23:26;2.20;;;2.10;;
8088;SDS011;57635;49.194;12.104;2023-06-05T00:25:53;2.07;;;1.97;;
8088;SDS011;57635;49.194;12.104;2023-06-05T00:28:21;2.47;;;2.37;;
8088;SDS011;57635;49.194;12.104;2023-06-05T00:30:50;2.77;;;2.57;;
8088;SDS011;57635;49.194;12.104;2023-06-05T00:33:18;2.77;;;2.57;;
8088;SDS011;57635;49.194;12.104;2023-06-05T00:35:45;2.33;;;2.23;;
8088;SDS011;57635;49.194;12.104;2023-06-05T00:38:13;3.30;;;2.43;;
8088;SDS011;57635;49.194;12.104;2023-06-05T00:40:42;4.57;;;2.70;;
8088;SDS011;57635;49.194;12.104;2023-06-05T00:43:10;2.80;;;2.60;;
8088;SDS011;57635;49.194;12.104;2023-06-05T00:45:37;2.43;;;2.33;;
8088;SDS011;57635;49.194;12.104;2023-06-05T00:48:05;3.63;;;2.70;;
8088;SDS011;57635;49.194;12.104;2023-06-05T00:50:33;3.20;;;2.90;;
8088;SDS011;57635;49.194;12.104;2023-06-05T00:53:03;2.50;;;2.30;;
8088;SDS011;57635;49.194;12.104;2023-06-05T00:55:31;3.57;;;2.80;;
8088;SDS011;57635;49.194;12.104;2023-06-05T00:58:00;3.10;;;2.80;;
8088;SDS011;57635;49.194;12.104;2023-06-05T01:00:29;2.70;;;2.50;;
8088;SDS011;57635;49.194;12.104;2023-06-05T01:02:57;2.63;;;2.53;;
8088;SDS011;57635;49.194;12.104;2023-06-05T01:05:25;2.67;;;2.57;;
8088;SDS011;57635;49.194;12.104;2023-06-05T01:07:53;2.57;;;2.47;;
8088;SDS011;57635;49.194;12.104;2023-06-05T01:10:21;2.30;;;2.20;;
8088;SDS011;57635;49.194;12.104;2023-06-05T01:12:50;3.17;;;2.77;;
8088;SDS011;57635;49.194;12.104;2023-06-05T01:15:23;2.73;;;2.60;;
8088;SDS011;57635;49.194;12.104;2023-06-05T01:17:55;2.97;;;2.53;;
8088;SDS011;57635;49.194;12.104;2023-06-05T01:20:31;4.37;;;3.00;;
8088;SDS011;57635;49.194;12.104;2023-06-05T01:23:00;2.43;;;2.27;;
8088;SDS011;57635;49.194;12.104;2023-06-05T01:25:28;2.90;;;2.40;;
8088;SDS011;57635;49.194;12.104;2023-06-05T01:27:58;2.57;;;2.47;;
8088;SDS011;57635;49.194;12.104;2023-06-05T01:30:29;2.73;;;2.53;;
8088;SDS011;57635;49.194;12.104;2023-06-05T01:33:00;5.27;;;2.50;;
8088;SDS011;57635;49.194;12.104;2023-06-05T01:35:30;2.87;;;2.57;;
8088;SDS011;57635;49.194;12.104;2023-06-05T01:38:02;3.10;;;2.47;;
8088;SDS011;57635;49.194;12.104;2023-06-05T01:40:32;2.47;;;2.30;;
8088;SDS011;57635;49.194;12.104;2023-06-05T01:43:01;2.77;;;2.57;;
8088;SDS011;57635;49.194;12.104;2023-06-05T01:45:28;3.30;;;2.90;;
8088;SDS011;57635;49.194;12.104;2023-06-05T01:47:57;2.67;;;2.47;;
8088;SDS011;57635;49.194;12.104;2023-06-05T01:50:25;2.90;;;2.70;;
8088;SDS011;57635;49.194;12.104;2023-06-05T01:52:53;3.03;;;2.83;;
8088;SDS011;57635;49.194;12.104;2023-06-05T01:55:22;2.40;;;2.30;;
8088;SDS011;57635;49.194;12.104;2023-06-05T01:57:51;2.93;;;2.67;;
8088;SDS011;57635;49.194;12.104;2023-06-05T02:00:18;3.70;;;2.40;;
8088;SDS011;57635;49.194;12.104;2023-06-05T02:02:46;2.60;;;2.40;;
8088;SDS011;57635;49.194;12.104;2023-06-05T02:05:16;3.10;;;2.60;;
8088;SDS011;57635;49.194;12.104;2023-06-05T02:07:47;2.60;;;2.40;;
8088;SDS011;57635;49.194;12.104;2023-06-05T02:10:19;2.47;;;2.30;;
8088;SDS011;57635;49.194;12.104;2023-06-05T02:12:49;4.13;;;2.60;;
8088;SDS011;57635;49.194;12.104;2023-06-05T02:15:16;3.10;;;2.63;;
8088;SDS011;57635;49.194;12.104;2023-06-05T02:17:44;3.03;;;2.83;;
8088;SDS011;57635;49.194;12.104;2023-06-05T02:20:17;3.53;;;2.60;;
8088;SDS011;57635;49.194;12.104;2023-06-05T02:22:45;2.70;;;2.50;;
8088;SDS011;57635;49.194;12.104;2023-06-05T02:25:16;2.73;;;2.60;;
8088;SDS011;57635;49.194;12.104;2023-06-05T02:27:44;3.23;;;3.03;;
8088;SDS011;57635;49.194;12.104;2023-06-05T02:30:13;3.23;;;3.03;;
8088;SDS011;57635;49.194;12.104;2023-06-05T02:32:41;3.13;;;2.90;;
8088;SDS011;57635;49.194;12.104;2023-06-05T02:35:10;2.83;;;2.73;;
8088;SDS011;57635;49.194;12.104;2023-06-05T02:37:38;3.03;;;2.67;;
8088;SDS011;57635;49.194;12.104;2023-06-05T02:40:09;2.63;;;2.43;;
8088;SDS011;57635;49.194;12.104;2023-06-05T02:42:38;3.00;;;2.73;;
8088;SDS011;57635;49.194;12.104;2023-06-05T02:45:07;2.83;;;2.40;;
8088;SDS011;57635;49.194;12.104;2023-06-05T02:47:36;2.67;;;2.47;;
8088;SDS011;57635;49.194;12.104;2023-06-05T02:50:05;2.70;;;2.50;;
8088;SDS011;57635;49.194;12.104;2023-06-05T02:52:34;2.70;;;2.50;;
8088;SDS011;57635;49.194;12.104;2023-06-05T02:55:02;2.83;;;2.60;;
8088;SDS011;57635;49.194;12.104;2023-06-05T02:57:31;3.27;;;2.67;;
8088;SDS011;57635;49.194;12.104;2023-06-05T02:59:59;2.80;;;2.60;;
8088;SDS011;57635;49.194;12.104;2023-06-05T03:02:28;2.87;;;2.67;;
8088;SDS011;57635;49.194;12.104;2023-06-05T03:04:57;3.00;;;2.50;;
8088;SDS011;57635;49.194;12.104;2023-06-05T03:07:25;2.53;;;2.33;;
8088;SDS011;57635;49.194;12.104;2023-06-05T03:09:52;2.53;;;2.43;;
8088;SDS011;57635;49.194;12.104;2023-06-05T03:12:20;2.50;;;2.40;;
8088;SDS011;57635;49.194;12.104;2023-06-05T03:14:48;2.47;;;2.23;;
8088;SDS011;57635;49.194;12.104;2023-06-05T03:17:15;2.77;;;2.57;;
8088;SDS011;57635;49.194;12.104;2023-06-05T03:19:43;3.00;;;2.80;;
8088;SDS011;57635;49.194;12.104;2023-06-05T03:22:12;2.93;;;2.63;;
8088;SDS011;57635;49.194;12.104;2023-06-05T03:24:40;3.03;;;2.83;;
8088;SDS011;57635;49.194;12.104;2023-06-05T03:27:07;2.60;;;2.40;;
8088;SDS011;57635;49.194;12.104;2023-06-05T03:29:35;2.93;;;2.73;;
8088;SDS011;57635;49.194;12.104;2023-06-05T03:32:03;3.00;;;2.80;;
8088;SDS011;57635;49.194;12.104;2023-06-05T03:34:31;3.20;;;2.80;;
8088;SDS011;57635;49.194;12.104;2023-06-05T03:37:02;2.70;;;2.50;;
8088;SDS011;57635;49.194;12.104;2023-06-05T03:39:32;3.10;;;2.90;;
8088;SDS011;57635;49.194;12.104;2023-06-05T03:41:59;3.13;;;2.90;;
8088;SDS011;57635;49.194;12.104;2023-06-05T03:44:28;3.33;;;3.07;;
8088;SDS011;57635;49.194;12.104;2023-06-05T03:46:56;3.10;;;2.60;;
8088;SDS011;57635;49.194;12.104;2023-06-05T03:49:24;4.57;;;3.30;;
8088;SDS011;57635;49.194;12.104;2023-06-05T03:51:52;3.67;;;2.70;;
8088;SDS011;57635;49.194;12.104;2023-06-05T03:54:24;3.50;;;3.20;;
8088;SDS011;57635;49.194;12.104;2023-06-05T03:56:53;2.80;;;2.60;;
8088;SDS011;57635;49.194;12.104;2023-06-05T03:59:21;3.43;;;2.87;;
8088;SDS011;57635;49.194;12.104;2023-06-05T04:01:51;3.67;;;3.23;;
8088;SDS011;57635;49.194;12.104;2023-06-05T04:04:19;3.33;;;2.83;;
8088;SDS011;57635;49.194;12.104;2023-06-05T04:06:48;3.17;;;2.93;;
8088;SDS011;57635;49.194;12.104;2023-06-05T04:09:16;4.70;;;3.00;;
8088;SDS011;57635;49.194;12.104;2023-06-05T04:11:44;4.03;;;3.23;;
8088;SDS011;57635;49.194;12.104;2023-06-05T04:14:15;4.50;;;2.93;;
8088;SDS011;57635;49.194;12.104;2023-06-05T04:16:42;2.90;;;2.60;;
8088;SDS011;57635;49.194;12.104;2023-06-05T04:19:10;3.33;;;3.07;;
8088;SDS011;57635;49.194;12.104;2023-06-05T04:21:39;4.10;;;2.80;;
8088;SDS011;57635;49.194;12.104;2023-06-05T04:24:08;4.50;;;2.70;;
8088;SDS011;57635;49.194;12.104;2023-06-05T04:26:37;4.37;;;2.47;;
8088;SDS011;57635;49.194;12.104;2023-06-05T04:29:07;3.13;;;2.80;;
8088;SDS011;57635;49.194;12.104;2023-06-05T04:31:41;3.30;;;2.67;;
8088;SDS011;57635;49.194;12.104;2023-06-05T04:34:09;2.90;;;2.70;;
8088;SDS011;57635;49.194;12.104;2023-06-05T04:36:37;3.80;;;3.40;;
8088;SDS011;57635;49.194;12.104;2023-06-05T04:39:04;15.00;;;5.63;;
8088;SDS011;57635;49.194;12.104;2023-06-05T04:41:40;3.20;;;2.90;;
8088;SDS011;57635;49.194;12.104;2023-06-05T04:44:11;2.87;;;2.53;;
8088;SDS011;57635;49.194;12.104;2023-06-05T04:46:39;2.93;;;2.73;;
8088;SDS011;57635;49.194;12.104;2023-06-05T04:49:09;2.80;;;2.60;;
8088;SDS011;57635;49.194;12.104;2023-06-05T04:51:37;2.90;;;2.70;;
8088;SDS011;57635;49.194;12.104;2023-06-05T04:54:05;3.70;;;3.00;;
8088;SDS011;57635;49.194;12.104;2023-06-05T04:56:33;4.53;;;3.60;;
8088;SDS011;57635;49.194;12.104;2023-06-05T04:59:00;3.13;;;2.53;;
8088;SDS011;57635;49.194;12.104;2023-06-05T05:01:29;3.03;;;2.83;;
8088;SDS011;57635;49.194;12.104;2023-06-05T05:03:58;2.93;;;2.73;;
8088;SDS011;57635;49.194;12.104;2023-06-05T05:06:26;3.00;;;2.70;;
8088;SDS011;57635;49.194;12.104;2023-06-05T05:08:53;3.00;;;2.63;;
8088;SDS011;57635;49.194;12.104;2023-06-05T05:11:21;2.50;;;2.30;;
8088;SDS011;57635;49.194;12.104;2023-06-05T05:13:49;3.20;;;2.90;;
8088;SDS011;57635;49.194;12.104;2023-06-05T05:16:16;4.97;;;3.23;;
8088;SDS011;57635;49.194;12.104;2023-06-05T05:18:44;3.90;;;3.03;;
8088;SDS011;57635;49.194;12.104;2023-06-05T05:21:13;2.97;;;2.60;;
8088;SDS011;57635;49.194;12.104;2023-06-05T05:23:41;3.27;;;2.50;;
8088;SDS011;57635;49.194;12.104;2023-06-05T05:26:09;2.90;;;2.70;;
8088;SDS011;57635;49.194;12.104;2023-06-05T05:28:36;3.30;;;3.00;;
8088;SDS011;57635;49.194;12.104;2023-06-05T05:31:04;3.53;;;3.23;;
8088;SDS011;57635;49.194;12.104;2023-06-05T05:33:32;4.17;;;2.70;;
8088;SDS011;57635;49.194;12.104;2023-06-05T05:35:59;3.20;;;2.73;;
8088;SDS011;57635;49.194;12.104;2023-06-05T05:38:28;3.10;;;2.90;;
8088;SDS011;57635;49.194;12.104;2023-06-05T05:40:56;3.27;;;2.90;;
8088;SDS011;57635;49.194;12.104;2023-06-05T05:43:24;3.40;;;3.10;;
8088;SDS011;57635;49.194;12.104;2023-06-05T05:45:52;3.93;;;3.17;;
8088;SDS011;57635;49.194;12.104;2023-06-05T05:48:20;3.37;;;3.17;;
8088;SDS011;57635;49.194;12.104;2023-06-05T05:50:49;3.93;;;3.63;;
8088;SDS011;57635;49.194;12.104;2023-06-05T05:53:17;3.10;;;2.80;;
8088;SDS011;57635;49.194;12.104;2023-06-05T05:55:46;3.80;;;3.50;;
8088;SDS011;57635;49.194;12.104;2023-06-05T05:58:14;4.43;;;3.47;;
8088;SDS011;57635;49.194;12.104;2023-06-05T06:00:41;3.63;;;3.33;;
8088;SDS011;57635;49.194;12.104;2023-06-05T06:03:09;5.50;;;3.40;;
8088;SDS011;57635;49.194;12.104;2023-06-05T06:05:37;3.80;;;3.50;;
8088;SDS011;57635;49.194;12.104;2023-06-05T06:08:05;3.70;;;3.40;;
8088;SDS011;57635;49.194;12.104;2023-06-05T06:10:33;3.80;;;3.50;;
8088;SDS011;57635;49.194;12.104;2023-06-05T06:13:03;4.97;;;3.60;;
8088;SDS011;57635;49.194;12.104;2023-06-05T06:15:32;3.27;;;3.07;;
8088;SDS011;57635;49.194;12.104;2023-06-05T06:18:00;5.63;;;3.43;;
8088;SDS011;57635;49.194;12.104;2023-06-05T06:20:28;3.83;;;3.53;;
8088;SDS011;57635;49.194;12.104;2023-06-05T06:22:56;3.73;;;3.43;;
8088;SDS011;57635;49.194;12.104;2023-06-05T06:25:24;9.10;;;3.63;;
8088;SDS011;57635;49.194;12.104;2023-06-05T06:27:55;3.70;;;3.50;;
8088;SDS011;57635;49.194;12.104;2023-06-05T06:30:24;3.63;;;3.33;;
8088;SDS011;57635;49.194;12.104;2023-06-05T06:32:52;4.10;;;3.80;;
8088;SDS011;57635;49.194;12.104;2023-06-05T06:35:20;4.93;;;3.70;;
8088;SDS011;57635;49.194;12.104;2023-06-05T06:37:48;3.80;;;3.40;;
8088;SDS011;57635;49.194;12.104;2023-06-05T06:40:16;6.27;;;4.23;;
8088;SDS011;57635;49.194;12.104;2023-06-05T06:42:44;5.00;;;4.53;;
8088;SDS011;57635;49.194;12.104;2023-06-05T06:45:11;4.77;;;4.33;;
8088;SDS011;57635;49.194;12.104;2023-06-05T06:47:40;6.83;;;5.00;;
8088;SDS011;57635;49.194;12.104;2023-06-05T06:50:20;5.03;;;4.63;;
8088;SDS011;57635;49.194;12.104;2023-06-05T06:52:48;4.83;;;4.40;;
8088;SDS011;57635;49.194;12.104;2023-06-05T06:55:16;5.33;;;4.87;;
8088;SDS011;57635;49.194;12.104;2023-06-05T06:57:44;4.77;;;4.33;;
8088;SDS011;57635;49.194;12.104;2023-06-05T07:00:12;4.57;;;4.17;;
8088;SDS011;57635;49.194;12.104;2023-06-05T07:02:41;4.70;;;4.40;;
8088;SDS011;57635;49.194;12.104;2023-06-05T07:05:10;6.57;;;4.33;;
8088;SDS011;57635;49.194;12.104;2023-06-05T07:07:38;4.57;;;4.27;;
8088;SDS011;57635;49.194;12.104;2023-06-05T07:10:06;4.77;;;4.33;;
8088;SDS011;57635;49.194;12.104;2023-06-05T07:12:34;4.60;;;4.20;;
8088;SDS011;57635;49.194;12.104;2023-06-05T07:15:01;4.70;;;4.10;;
8088;SDS011;57635;49.194;12.104;2023-06-05T07:17:30;4.87;;;4.50;;
8088;SDS011;57635;49.194;12.104;2023-06-05T07:19:59;5.20;;;4.70;;
8088;SDS011;57635;49.194;12.104;2023-06-05T07:22:26;4.73;;;3.50;;
8088;SDS011;57635;49.194;12.104;2023-06-05T07:24:56;4.73;;;4.33;;
8088;SDS011;57635;49.194;12.104;2023-06-05T07:27:24;4.70;;;4.40;;
8088;SDS011;57635;49.194;12.104;2023-06-05T07:29:51;4.47;;;4.17;;
8088;SDS011;57635;49.194;12.104;2023-06-05T07:32:20;7.63;;;5.10;;
8088;SDS011;57635;49.194;12.104;2023-06-05T07:34:47;4.50;;;4.17;;
8088;SDS011;57635;49.194;12.104;2023-06-05T07:37:16;4.13;;;3.83;;
8088;SDS011;57635;49.194;12.104;2023-06-05T07:39:44;4.73;;;4.20;;
8088;SDS011;57635;49.194;12.104;2023-06-05T07:42:13;4.07;;;3.77;;
8088;SDS011;57635;49.194;12.104;2023-06-05T07:44:42;4.37;;;4.07;;
8088;SDS011;57635;49.194;12.104;2023-06-05T07:47:10;5.17;;;4.40;;
8088;SDS011;57635;49.194;12.104;2023-06-05T07:49:37;4.53;;;4.13;;
8088;SDS011;57635;49.194;12.104;2023-06-05T07:52:05;4.27;;;3.87;;
8088;SDS011;57635;49.194;12.104;2023-06-05T07:54:34;4.40;;;4.10;;
8088;SDS011;57635;49.194;12.104;2023-06-05T07:57:04;4.20;;;3.90;;
8088;SDS011;57635;49.194;12.104;2023-06-05T07:59:34;4.40;;;4.07;;
8088;SDS011;57635;49.194;12.104;2023-06-05T08:02:02;4.13;;;3.83;;
8088;SDS011;57635;49.194;12.104;2023-06-05T08:04:31;4.43;;;3.90;;
8088;SDS011;57635;49.194;12.104;2023-06-05T08:06:59;4.23;;;3.93;;
8088;SDS011;57635;49.194;12.104;2023-06-05T08:09:27;4.33;;;3.80;;
8088;SDS011;57635;49.194;12.104;2023-06-05T08:11:56;3.67;;;3.43;;
8088;SDS011;57635;49.194;12.104;2023-06-05T08:14:23;4.13;;;3.93;;
8088;SDS011;57635;49.194;12.104;2023-06-05T08:16:51;4.07;;;3.67;;
8088;SDS011;57635;49.194;12.104;2023-06-05T08:19:19;4.43;;;4.03;;
8088;SDS011;57635;49.194;12.104;2023-06-05T08:21:46;4.47;;;4.07;;
8088;SDS011;57635;49.194;12.104;2023-06-05T08:24:17;4.00;;;3.70;;
8088;SDS011;57635;49.194;12.104;2023-06-05T08:26:44;4.10;;;3.80;;
8088;SDS011;57635;49.194;12.104;2023-06-05T08:29:13;3.60;;;3.40;;
8088;SDS011;57635;49.194;12.104;2023-06-05T08:31:41;4.30;;;4.00;;
8088;SDS011;57635;49.194;12.104;2023-06-05T08:34:08;4.10;;;3.80;;
8088;SDS011;57635;49.194;12.104;2023-06-05T08:36:38;4.60;;;4.30;;
8088;SDS011;57635;49.194;12.104;2023-06-05T08:39:05;4.47;;;4.07;;
8088;SDS011;57635;49.194;12.104;2023-06-05T08:41:33;4.60;;;3.77;;
8088;SDS011;57635;49.194;12.104;2023-06-05T08:44:01;4.23;;;3.93;;
8088;SDS011;57635;49.194;12.104;2023-06-05T08:46:31;4.37;;;3.97;;
8088;SDS011;57635;49.194;12.104;2023-06-05T08:48:58;4.57;;;4.27;;
8088;SDS011;57635;49.194;12.104;2023-06-05T08:51:34;4.50;;;3.73;;
8088;SDS011;57635;49.194;12.104;2023-06-05T08:54:03;4.53;;;4.20;;
8088;SDS011;57635;49.194;12.104;2023-06-05T08:56:33;4.93;;;4.40;;
8088;SDS011;57635;49.194;12.104;2023-06-05T08:59:04;4.93;;;4.63;;
8088;SDS011;57635;49.194;12.104;2023-06-05T09:01:34;4.47;;;4.07;;
8088;SDS011;57635;49.194;12.104;2023-06-05T09:04:03;4.40;;;4.10;;
8088;SDS011;57635;49.194;12.104;2023-06-05T09:06:31;4.90;;;4.10;;
8088;SDS011;57635;49.194;12.104;2023-06-05T09:09:00;3.80;;;3.60;;
8088;SDS011;57635;49.194;12.104;2023-06-05T09:11:28;4.10;;;3.80;;
8088;SDS011;57635;49.194;12.104;2023-06-05T09:13:57;3.60;;;3.30;;
8088;SDS011;57635;49.194;12.104;2023-06-05T09:16:36;4.30;;;4.00;;
8088;SDS011;57635;49.194;12.104;2023-06-05T09:19:05;4.20;;;3.80;;
8088;SDS011;57635;49.194;12.104;2023-06-05T09:21:33;3.70;;;3.50;;
8088;SDS011;57635;49.194;12.104;2023-06-05T09:24:09;4.23;;;3.90;;
8088;SDS011;57635;49.194;12.104;2023-06-05T09:26:52;3.30;;;3.10;;
8088;SDS011;57635;49.194;12.104;2023-06-05T09:29:22;3.40;;;3.20;;
8088;SDS011;57635;49.194;12.104;2023-06-05T09:31:53;3.63;;;3.43;;
8088;SDS011;57635;49.194;12.104;2023-06-05T09:34:22;4.37;;;3.57;;
8088;SDS011;57635;49.194;12.104;2023-06-05T09:36:50;3.70;;;3.40;;
8088;SDS011;57635;49.194;12.104;2023-06-05T09:39:21;4.20;;;3.90;;
8088;SDS011;57635;49.194;12.104;2023-06-05T09:41:51;4.00;;;3.70;;
8088;SDS011;57635;49.194;12.104;2023-06-05T09:44:19;5.47;;;3.93;;
8088;SDS011;57635;49.194;12.104;2023-06-05T09:46:50;4.20;;;4.00;;
8088;SDS011;57635;49.194;12.104;2023-06-05T09:49:21;3.90;;;3.70;;
8088;SDS011;57635;49.194;12.104;2023-06-05T09:51:51;4.10;;;3.80;;
8088;SDS011;57635;49.194;12.104;2023-06-05T09:54:19;4.33;;;4.03;;
8088;SDS011;57635;49.194;12.104;2023-06-05T09:56:48;4.27;;;3.90;;
8088;SDS011;57635;49.194;12.104;2023-06-05T09:59:18;3.80;;;3.60;;
8088;SDS011;57635;49.194;12.104;2023-06-05T10:01:48;4.07;;;3.87;;
8088;SDS011;57635;49.194;12.104;2023-06-05T10:04:18;3.03;;;2.83;;
8088;SDS011;57635;49.194;12.104;2023-06-05T10:06:48;3.10;;;2.90;;
8088;SDS011;57635;49.194;12.104;2023-06-05T10:09:16;3.70;;;3.40;;
8088;SDS011;57635;49.194;12.104;2023-06-05T10:11:47;4.80;;;3.50;;
8088;SDS011;57635;49.194;12.104;2023-06-05T10:14:16;3.40;;;3.17;;
8088;SDS011;57635;49.194;12.104;2023-06-05T10:16:44;3.50;;;3.20;;
8088;SDS011;57635;49.194;12.104;2023-06-05T10:19:14;3.80;;;3.50;;
8088;SDS011;57635;49.194;12.104;2023-06-05T10:21:44;3.87;;;3.60;;
8088;SDS011;57635;49.194;12.104;2023-06-05T10:24:14;3.80;;;3.60;;
8088;SDS011;57635;49.194;12.104;2023-06-05T10:30:13;4.33;;;3.97;;
8088;SDS011;57635;49.194;12.104;2023-06-05T10:33:11;4.77;;;3.97;;
8088;SDS011;57635;49.194;12.104;2023-06-05T10:35:47;5.33;;;4.03;;
8088;SDS011;57635;49.194;12.104;2023-06-05T10:38:19;4.67;;;4.13;;
8088;SDS011;57635;49.194;12.104;2023-06-05T10:40:48;4.33;;;3.93;;
8088;SDS011;57635;49.194;12.104;2023-06-05T10:43:23;3.77;;;3.57;;
8088;SDS011;57635;49.194;12.104;2023-06-05T10:45:51;4.10;;;3.70;;
8088;SDS011;57635;49.194;12.104;2023-06-05T10:51:39;3.90;;;3.70;;
8088;SDS011;57635;49.194;12.104;2023-06-05T10:54:11;4.27;;;3.97;;
8088;SDS011;57635;49.194;12.104;2023-06-05T10:59:33;4.10;;;3.67;;
8088;SDS011;57635;49.194;12.104;2023-06-05T11:05:06;4.40;;;3.13;;
8088;SDS011;57635;49.194;12.104;2023-06-05T11:07:36;4.50;;;3.60;;
8088;SDS011;57635;49.194;12.104;2023-06-05T11:10:16;3.87;;;3.67;;
8088;SDS011;57635;49.194;12.104;2023-06-05T11:12:54;4.13;;;3.93;;
8088;SDS011;57635;49.194;12.104;2023-06-05T11:15:41;4.67;;;4.27;;
8088;SDS011;57635;49.194;12.104;2023-06-05T11:21:00;4.57;;;4.17;;
8088;SDS011;57635;49.194;12.104;2023-06-05T11:23:28;3.77;;;3.57;;
8088;SDS011;57635;49.194;12.104;2023-06-05T11:25:58;3.87;;;3.67;;
8088;SDS011;57635;49.194;12.104;2023-06-05T11:29:09;4.33;;;3.57;;
8088;SDS011;57635;49.194;12.104;2023-06-05T11:31:38;4.47;;;4.10;;
8088;SDS011;57635;49.194;12.104;2023-06-05T11:34:10;4.03;;;3.83;;
8088;SDS011;57635;49.194;12.104;2023-06-05T11:36:38;4.03;;;3.80;;
8088;SDS011;57635;49.194;12.104;2023-06-05T11:39:07;3.83;;;3.53;;
8088;SDS011;57635;49.194;12.104;2023-06-05T11:41:43;4.37;;;3.97;;
8088;SDS011;57635;49.194;12.104;2023-06-05T11:44:12;4.10;;;3.70;;
8088;SDS011;57635;49.194;12.104;2023-06-05T11:46:40;4.13;;;3.83;;
8088;SDS011;57635;49.194;12.104;2023-06-05T11:49:22;4.03;;;3.63;;
8088;SDS011;57635;49.194;12.104;2023-06-05T11:51:51;3.70;;;3.50;;
8088;SDS011;57635;49.194;12.104;2023-06-05T11:54:28;3.50;;;3.20;;
8088;SDS011;57635;49.194;12.104;2023-06-05T11:57:00;3.97;;;3.73;;
8088;SDS011;57635;49.194;12.104;2023-06-05T11:59:34;5.07;;;3.57;;
8088;SDS011;57635;49.194;12.104;2023-06-05T12:02:03;4.63;;;3.60;;
8088;SDS011;57635;49.194;12.104;2023-06-05T12:04:31;3.67;;;3.33;;
8088;SDS011;57635;49.194;12.104;2023-06-05T12:06:59;3.40;;;3.20;;
8088;SDS011;57635;49.194;12.104;2023-06-05T12:09:27;3.50;;;3.20;;
8088;SDS011;57635;49.194;12.104;2023-06-05T12:12:06;3.70;;;3.50;;
8088;SDS011;57635;49.194;12.104;2023-06-05T12:14:34;4.27;;;3.47;;
8088;SDS011;57635;49.194;12.104;2023-06-05T12:17:08;3.63;;;3.27;;
8088;SDS011;57635;49.194;12.104;2023-06-05T12:19:36;5.93;;;3.63;;
8088;SDS011;57635;49.194;12.104;2023-06-05T12:22:05;3.03;;;2.90;;
8088;SDS011;57635;49.194;12.104;2023-06-05T12:24:33;2.90;;;2.80;;
8088;SDS011;57635;49.194;12.104;2023-06-05T12:27:01;3.20;;;2.93;;
8088;SDS011;57635;49.194;12.104;2023-06-05T12:29:32;3.30;;;3.10;;
8088;SDS011;57635;49.194;12.104;2023-06-05T12:32:00;3.57;;;3.37;;
8088;SDS011;57635;49.194;12.104;2023-06-05T12:34:38;3.00;;;2.90;;
8088;SDS011;57635;49.194;12.104;2023-06-05T12:37:26;3.27;;;3.00;;
8088;SDS011;57635;49.194;12.104;2023-06-05T12:39:55;3.27;;;3.03;;
8088;SDS011;57635;49.194;12.104;2023-06-05T12:42:24;2.90;;;2.80;;
8088;SDS011;57635;49.194;12.104;2023-06-05T12:44:54;3.30;;;3.10;;
8088;SDS011;57635;49.194;12.104;2023-06-05T12:47:21;4.40;;;3.97;;
8088;SDS011;57635;49.194;12.104;2023-06-05T12:49:49;5.27;;;3.60;;
8088;SDS011;57635;49.194;12.104;2023-06-05T12:52:17;4.47;;;4.07;;
8088;SDS011;57635;49.194;12.104;2023-06-05T12:54:51;3.93;;;3.10;;
8088;SDS011;57635;49.194;12.104;2023-06-05T12:57:19;3.80;;;3.50;;
8088;SDS011;57635;49.194;12.104;2023-06-05T12:59:47;4.07;;;3.77;;
8088;SDS011;57635;49.194;12.104;2023-06-05T13:02:16;3.80;;;3.60;;
8088;SDS011;57635;49.194;12.104;2023-06-05T13:04:43;3.50;;;3.20;;
8088;SDS011;57635;49.194;12.104;2023-06-05T13:07:12;3.23;;;3.03;;
8088;SDS011;57635;49.194;12.104;2023-06-05T13:09:39;3.70;;;3.17;;
8088;SDS011;57635;49.194;12.104;2023-06-05T13:12:07;3.70;;;3.40;;
8088;SDS011;57635;49.194;12.104;2023-06-05T13:14:35;3.97;;;3.50;;
8088;SDS011;57635;49.194;12.104;2023-06-05T13:17:02;4.87;;;3.20;;
8088;SDS011;57635;49.194;12.104;2023-06-05T13:19:32;3.00;;;2.87;;
8088;SDS011;57635;49.194;12.104;2023-06-05T13:21:59;3.30;;;3.10;;
8088;SDS011;57635;49.194;12.104;2023-06-05T13:24:27;3.27;;;2.60;;
8088;SDS011;57635;49.194;12.104;2023-06-05T13:26:55;2.97;;;2.80;;
8088;SDS011;57635;49.194;12.104;2023-06-05T13:29:24;3.20;;;2.53;;
8088;SDS011;57635;49.194;12.104;2023-06-05T13:31:51;2.93;;;2.83;;
8088;SDS011;57635;49.194;12.104;2023-06-05T13:34:19;3.10;;;2.87;;
8088;SDS011;57635;49.194;12.104;2023-06-05T13:36:48;4.63;;;3.43;;
8088;SDS011;57635;49.194;12.104;2023-06-05T13:39:21;3.00;;;2.80;;
8088;SDS011;57635;49.194;12.104;2023-06-05T13:41:49;2.67;;;2.57;;
8088;SDS011;57635;49.194;12.104;2023-06-05T13:44:19;2.40;;;2.30;;
8088;SDS011;57635;49.194;12.104;2023-06-05T13:46:47;3.40;;;2.43;;
8088;SDS011;57635;49.194;12.104;2023-06-05T13:49:14;3.30;;;3.10;;
8088;SDS011;57635;49.194;12.104;2023-06-05T13:51:42;2.40;;;2.30;;
8088;SDS011;57635;49.194;12.104;2023-06-05T13:54:11;2.00;;;1.90;;
8088;SDS011;57635;49.194;12.104;2023-06-05T13:56:38;2.33;;;2.17;;
8088;SDS011;57635;49.194;12.104;2023-06-05T13:59:06;1.83;;;1.73;;
8088;SDS011;57635;49.194;12.104;2023-06-05T14:01:34;1.40;;;1.30;;
8088;SDS011;57635;49.194;12.104;2023-06-05T14:04:01;1.63;;;1.63;;
8088;SDS011;57635;49.194;12.104;2023-06-05T14:06:29;1.60;;;1.60;;
8088;SDS011;57635;49.194;12.104;2023-06-05T14:08:57;1.93;;;1.90;;
8088;SDS011;57635;49.194;12.104;2023-06-05T14:11:26;2.20;;;2.10;;
8088;SDS011;57635;49.194;12.104;2023-06-05T14:13:53;2.20;;;2.10;;
8088;SDS011;57635;49.194;12.104;2023-06-05T14:16:21;2.10;;;1.90;;
8088;SDS011;57635;49.194;12.104;2023-06-05T14:18:49;2.50;;;2.40;;
8088;SDS011;57635;49.194;12.104;2023-06-05T14:21:17;2.90;;;2.50;;
8088;SDS011;57635;49.194;12.104;2023-06-05T14:23:44;2.87;;;2.77;;
8088;SDS011;57635;49.194;12.104;2023-06-05T14:26:12;3.80;;;3.60;;
8088;SDS011;57635;49.194;12.104;2023-06-05T14:28:41;3.33;;;3.03;;
8088;SDS011;57635;49.194;12.104;2023-06-05T14:31:08;4.30;;;3.37;;
8088;SDS011;57635;49.194;12.104;2023-06-05T14:33:36;3.93;;;3.63;;
8088;SDS011;57635;49.194;12.104;2023-06-05T14:36:04;3.63;;;3.33;;
8088;SDS011;57635;49.194;12.104;2023-06-05T14:38:32;3.83;;;3.53;;
8088;SDS011;57635;49.194;12.104;2023-06-05T14:40:59;4.67;;;3.57;;
8088;SDS011;57635;49.194;12.104;2023-06-05T14:43:27;4.23;;;3.93;;
8088;SDS011;57635;49.194;12.104;2023-06-05T14:45:56;3.80;;;3.60;;
8088;SDS011;57635;49.194;12.104;2023-06-05T14:48:26;3.90;;;3.60;;
8088;SDS011;57635;49.194;12.104;2023-06-05T14:50:54;3.50;;;3.30;;
8088;SDS011;57635;49.194;12.104;2023-06-05T14:53:22;3.70;;;3.40;;
8088;SDS011;57635;49.194;12.104;2023-06-05T14:55:50;3.47;;;3.27;;
8088;SDS011;57635;49.194;12.104;2023-06-05T14:58:18;3.00;;;2.90;;
8088;SDS011;57635;49.194;12.104;2023-06-05T15:00:45;2.77;;;2.57;;
8088;SDS011;57635;49.194;12.104;2023-06-05T15:03:21;3.00;;;2.90;;
8088;SDS011;57635;49.194;12.104;2023-06-05T15:05:49;2.70;;;2.60;;
8088;SDS011;57635;49.194;12.104;2023-06-05T15:08:18;3.17;;;2.97;;
8088;SDS011;57635;49.194;12.104;2023-06-05T15:10:46;24.63;;;5.27;;
8088;SDS011;57635;49.194;12.104;2023-06-05T15:13:14;3.27;;;3.07;;
8088;SDS011;57635;49.194;12.104;2023-06-05T15:15:42;3.20;;;3.00;;